createdAt,value
2023-01-23T00:01:39.156Z,100923.25
2023-01-23T00:04:07.330Z,100925.02
2023-01-23T00:06:35.392Z,100927.68
2023-01-23T00:09:04.039Z,100933.70
2023-01-23T00:11:32.754Z,100934.14
2023-01-23T00:14:02.211Z,100939.71
2023-01-23T00:16:32.659Z,100940.48
2023-01-23T00:19:00.893Z,100938.52
2023-01-23T00:21:30.414Z,100939.94
2023-01-23T00:24:01.781Z,100941.61
2023-01-23T00:26:32.937Z,100942.19
2023-01-23T00:29:02.148Z,100944.43
2023-01-23T00:31:37.262Z,100946.52
2023-01-23T00:34:08.187Z,100947.70
2023-01-23T00:36:38.351Z,100949.27
2023-01-23T00:39:16.394Z,100955.15
2023-01-23T00:41:46.994Z,100955.41
2023-01-23T00:44:16.017Z,100956.96
2023-01-23T00:46:44.392Z,100954.64
2023-01-23T00:49:12.883Z,100952.69
2023-01-23T00:51:40.864Z,100948.34
2023-01-23T00:54:08.924Z,100947.71
2023-01-23T00:56:36.983Z,100949.35
2023-01-23T00:59:04.836Z,100959.80
2023-01-23T01:01:33.167Z,100966.45
2023-01-23T01:04:01.662Z,100968.42
2023-01-23T01:06:31.094Z,100973.02
2023-01-23T01:08:59.913Z,100966.80
2023-01-23T01:11:28.362Z,100972.04
2023-01-23T01:14:01.506Z,100977.64
2023-01-23T01:16:30.212Z,100975.34
2023-01-23T01:19:00.072Z,100974.73
2023-01-23T01:21:28.395Z,100972.59
2023-01-23T01:23:56.649Z,100979.10
2023-01-23T01:26:28.016Z,100980.45
2023-01-23T01:28:56.134Z,100979.35
2023-01-23T01:31:24.104Z,100975.55
2023-01-23T01:33:52.109Z,100974.77
2023-01-23T01:36:24.076Z,100972.48
2023-01-23T01:38:52.020Z,100973.96
2023-01-23T01:41:20.035Z,100975.27
2023-01-23T01:43:48.284Z,100975.99
2023-01-23T01:46:32.907Z,100977.59
2023-01-23T01:49:13.165Z,100976.84
2023-01-23T01:51:44.457Z,100977.09
2023-01-23T01:54:28.721Z,100970.16
2023-01-23T01:57:20.938Z,100963.05
2023-01-23T02:00:00.522Z,100957.45
2023-01-23T02:02:43.876Z,100958.79
2023-01-23T02:05:26.091Z,100962.77
2023-01-23T02:08:09.532Z,100961.48
2023-01-23T02:10:38.497Z,100960.04
2023-01-23T02:13:21.573Z,100959.61
2023-01-23T02:15:51.605Z,100962.78
2023-01-23T02:18:21.418Z,100962.15
2023-01-23T02:20:52.176Z,100958.61
2023-01-23T02:23:29.002Z,100958.20
2023-01-23T02:26:03.629Z,100959.06
2023-01-23T02:28:52.482Z,100956.43
2023-01-23T02:31:23.463Z,100954.38
2023-01-23T02:33:57.778Z,100953.62
2023-01-23T02:36:31.850Z,100957.80
2023-01-23T02:39:13.483Z,100955.11
2023-01-23T02:41:47.462Z,100954.52
2023-01-23T02:44:18.509Z,100954.15
2023-01-23T02:46:50.396Z,100953.79
2023-01-23T02:49:18.387Z,100950.70
2023-01-23T02:51:46.469Z,100950.73
2023-01-23T02:54:15.071Z,100952.70
2023-01-23T02:56:43.214Z,100950.70
2023-01-23T02:59:29.914Z,100948.46
2023-01-23T03:01:58.008Z,100946.70
2023-01-23T03:04:26.420Z,100950.09
2023-01-23T03:06:54.320Z,100946.45
2023-01-23T03:09:22.892Z,100942.50
2023-01-23T03:11:51.041Z,100940.41
2023-01-23T03:14:22.456Z,100940.77
2023-01-23T03:16:52.748Z,100937.69
2023-01-23T03:19:23.915Z,100935.94
2023-01-23T03:21:52.149Z,100935.74
2023-01-23T03:24:21.042Z,100935.09
2023-01-23T03:26:50.596Z,100934.28
2023-01-23T03:29:41.629Z,100933.58
2023-01-23T03:32:12.323Z,100929.15
2023-01-23T03:34:41.783Z,100927.09
2023-01-23T03:37:12.492Z,100922.73
2023-01-23T03:39:59.744Z,100913.90
2023-01-23T03:42:27.977Z,100901.91
2023-01-23T03:44:58.394Z,100896.61
2023-01-23T03:47:28.847Z,100902.70
2023-01-23T03:49:56.957Z,100918.13
2023-01-23T03:52:24.982Z,100931.13
2023-01-23T03:54:52.860Z,100933.32
2023-01-23T03:57:21.077Z,100931.43
2023-01-23T03:59:49.171Z,100927.14
2023-01-23T04:02:19.243Z,100925.70
2023-01-23T04:04:47.299Z,100927.08
2023-01-23T04:07:15.766Z,100930.59
2023-01-23T04:09:44.111Z,100932.94
2023-01-23T04:12:12.557Z,100937.08
2023-01-23T04:14:43.988Z,100937.64
2023-01-23T04:17:13.680Z,100943.23
2023-01-23T04:19:42.173Z,100943.77
2023-01-23T04:22:10.475Z,100948.81
2023-01-23T04:24:48.852Z,100951.88
2023-01-23T04:27:16.919Z,100955.89
2023-01-23T04:29:47.984Z,100958.90
2023-01-23T04:32:15.928Z,100962.13
2023-01-23T04:34:47.006Z,100962.37
2023-01-23T04:37:16.114Z,100960.24
2023-01-23T04:39:44.250Z,100959.80
2023-01-23T04:42:12.169Z,100962.38
2023-01-23T04:44:55.051Z,100962.42
2023-01-23T04:47:22.886Z,100961.29
2023-01-23T04:49:51.058Z,100962.55
2023-01-23T04:52:19.342Z,100963.94
2023-01-23T04:54:54.174Z,100966.01
2023-01-23T04:57:22.396Z,100967.34
2023-01-23T04:59:53.654Z,100972.74
2023-01-23T05:02:21.936Z,100970.73
2023-01-23T05:04:49.972Z,100967.21
2023-01-23T05:07:18.134Z,100966.56
2023-01-23T05:09:56.966Z,100977.92
2023-01-23T05:12:25.291Z,100980.81
2023-01-23T05:14:53.255Z,100985.60
2023-01-23T05:17:21.291Z,100987.54
2023-01-23T05:19:53.348Z,100981.82
2023-01-23T05:22:22.835Z,100979.30
2023-01-23T05:24:51.271Z,100976.85
2023-01-23T05:27:19.308Z,100977.23
2023-01-23T05:29:48.872Z,100976.63
2023-01-23T05:32:21.457Z,100978.64
2023-01-23T05:34:55.098Z,100989.17
2023-01-23T05:37:25.988Z,100990.52
2023-01-23T05:39:57.411Z,100989.85
2023-01-23T05:42:26.707Z,100995.05
2023-01-23T05:45:06.464Z,100997.52
2023-01-23T05:47:43.266Z,101000.57
2023-01-23T05:50:20.660Z,100998.30
2023-01-23T05:52:48.752Z,100996.60
2023-01-23T05:55:16.987Z,100996.33
2023-01-23T05:57:46.352Z,100996.05
2023-01-23T06:00:37.418Z,100999.85
2023-01-23T06:03:28.553Z,100997.02
2023-01-23T06:06:19.434Z,101001.08
2023-01-23T06:08:47.330Z,100999.72
2023-01-23T06:11:15.173Z,101002.99
2023-01-23T06:13:43.089Z,101010.48
2023-01-23T06:16:11.189Z,101015.27
2023-01-23T06:18:39.613Z,101019.43
2023-01-23T06:21:07.635Z,101020.48
2023-01-23T06:23:37.163Z,101019.48
2023-01-23T06:26:05.464Z,101017.23
2023-01-23T06:28:34.262Z,101020.64
2023-01-23T06:31:04.226Z,101028.09
2023-01-23T06:33:54.106Z,101039.55
2023-01-23T06:36:29.471Z,101043.17
2023-01-23T06:38:57.436Z,101047.52
2023-01-23T06:41:30.803Z,101051.68
2023-01-23T06:44:02.636Z,101053.29
2023-01-23T06:46:30.774Z,101062.92
2023-01-23T06:48:59.088Z,101064.25
2023-01-23T06:51:28.889Z,101061.23
2023-01-23T06:53:58.199Z,101061.39
2023-01-23T06:56:26.790Z,101061.73
2023-01-23T06:58:54.804Z,101065.06
2023-01-23T07:01:29.464Z,101063.02
2023-01-23T07:04:06.180Z,101056.84
2023-01-23T07:06:34.111Z,101056.83
2023-01-23T07:09:02.427Z,101054.20
2023-01-23T07:11:31.077Z,101053.69
2023-01-23T07:13:59.357Z,101051.95
2023-01-23T07:16:28.415Z,101054.45
2023-01-23T07:18:59.075Z,101053.48
2023-01-23T07:21:27.119Z,101055.14
2023-01-23T07:23:55.024Z,101054.84
2023-01-23T07:26:22.932Z,101055.27
2023-01-23T07:28:50.875Z,101058.30
2023-01-23T07:31:18.981Z,101064.16
2023-01-23T07:33:47.382Z,101069.08
2023-01-23T07:36:15.505Z,101072.77
2023-01-23T07:38:43.395Z,101074.45
2023-01-23T07:41:11.353Z,101074.09
2023-01-23T07:43:39.266Z,101076.18
2023-01-23T07:46:09.592Z,101078.18
2023-01-23T07:48:38.885Z,101077.95
2023-01-23T07:51:07.481Z,101080.54
2023-01-23T07:53:35.829Z,101080.48
2023-01-23T07:56:08.527Z,101076.85
2023-01-23T07:58:36.425Z,101074.92
2023-01-23T08:01:09.565Z,101075.40
2023-01-23T08:03:38.094Z,101080.80
2023-01-23T08:06:06.448Z,101081.56
2023-01-23T08:08:34.452Z,101080.02
2023-01-23T08:11:06.998Z,101080.04
2023-01-23T08:13:34.850Z,101082.48
2023-01-23T08:16:03.597Z,101084.42
2023-01-23T08:18:31.903Z,101082.88
2023-01-23T08:21:03.137Z,101080.05
2023-01-23T08:23:33.830Z,101084.96
2023-01-23T08:26:08.592Z,101085.33
2023-01-23T08:28:36.598Z,101090.15
2023-01-23T08:31:07.973Z,101090.82
2023-01-23T08:33:38.090Z,101089.95
2023-01-23T08:36:08.995Z,101088.58
2023-01-23T08:38:39.446Z,101090.98
2023-01-23T08:41:09.935Z,101090.73
2023-01-23T08:43:38.834Z,101086.92
2023-01-23T08:46:07.769Z,101091.27
2023-01-23T08:48:35.832Z,101090.95
2023-01-23T08:51:13.057Z,101092.54
2023-01-23T08:53:41.911Z,101089.61
2023-01-23T08:56:18.963Z,101088.77
2023-01-23T08:58:48.961Z,101091.98
2023-01-23T09:01:19.960Z,101090.52
2023-01-23T09:03:48.597Z,101086.91
2023-01-23T09:06:19.374Z,101086.11
2023-01-23T09:08:47.816Z,101085.30
2023-01-23T09:11:16.567Z,101089.48
2023-01-23T09:13:46.867Z,101086.52
2023-01-23T09:16:15.806Z,101085.67
2023-01-23T09:18:44.134Z,101090.10
2023-01-23T09:21:15.869Z,101090.32
2023-01-23T09:23:44.257Z,101089.65
2023-01-23T09:26:14.793Z,101091.23
2023-01-23T09:28:43.153Z,101092.05
2023-01-23T09:31:13.625Z,101088.00
2023-01-23T09:33:42.420Z,101088.70
2023-01-23T09:36:10.818Z,101095.90
2023-01-23T09:38:38.684Z,101090.10
2023-01-23T09:41:20.507Z,101090.53
2023-01-23T09:44:10.732Z,101090.34
2023-01-23T09:46:48.149Z,101090.21
2023-01-23T09:49:34.136Z,101088.77
2023-01-23T09:52:11.268Z,101086.89
2023-01-23T09:54:48.631Z,101086.20
2023-01-23T09:57:23.410Z,101086.98
2023-01-23T10:00:00.814Z,101088.70
2023-01-23T10:02:29.349Z,101088.91
2023-01-23T10:04:59.751Z,101083.98
2023-01-23T10:07:38.678Z,101088.20
2023-01-23T10:10:24.089Z,101090.84
2023-01-23T10:13:35.671Z,101087.16
2023-01-23T10:16:18.460Z,101085.66
2023-01-23T10:18:49.432Z,101083.73
2023-01-23T10:21:42.675Z,101083.73
2023-01-23T10:24:48.157Z,101081.46
2023-01-23T10:27:33.022Z,101077.27
2023-01-23T10:30:16.453Z,101077.77
2023-01-23T10:32:56.092Z,101077.65
2023-01-23T10:35:44.593Z,101072.04
2023-01-23T10:38:18.591Z,101064.56
2023-01-23T10:41:07.586Z,101061.26
2023-01-23T10:43:36.002Z,101061.39
2023-01-23T10:46:16.954Z,101063.92
2023-01-23T10:48:46.560Z,101063.27
2023-01-23T10:51:39.943Z,101059.59
2023-01-23T10:54:13.027Z,101057.88
2023-01-23T10:56:58.354Z,101061.69
2023-01-23T10:59:28.223Z,101056.59
2023-01-23T11:01:59.993Z,101049.90
2023-01-23T11:04:31.881Z,101046.70
2023-01-23T11:07:37.006Z,101044.92
2023-01-23T11:10:08.050Z,101040.95
2023-01-23T11:12:48.780Z,101037.80
2023-01-23T11:15:22.879Z,101039.09
2023-01-23T11:17:53.106Z,101036.61
2023-01-23T11:20:32.078Z,101037.89
2023-01-23T11:23:12.945Z,101033.30
2023-01-23T11:25:41.771Z,101032.52
2023-01-23T11:28:35.440Z,101029.92
2023-01-23T11:31:15.974Z,101026.23
2023-01-23T11:34:04.807Z,101023.58
2023-01-23T11:36:55.146Z,101024.10
2023-01-23T11:39:51.314Z,101023.41
2023-01-23T11:42:19.704Z,101021.83
2023-01-23T11:44:49.688Z,101024.32
2023-01-23T11:47:39.526Z,101024.56
2023-01-23T11:50:11.692Z,101021.52
2023-01-23T11:53:04.096Z,101018.63
2023-01-23T11:56:03.677Z,101018.02
2023-01-23T11:58:52.757Z,101016.22
2023-01-23T12:01:47.085Z,101016.98
2023-01-23T12:05:02.997Z,101013.52
2023-01-23T12:07:37.918Z,101013.98
2023-01-23T12:10:23.284Z,101015.30
2023-01-23T12:12:54.324Z,101015.20
2023-01-23T12:15:47.507Z,101012.62
2023-01-23T12:18:34.248Z,101011.29
2023-01-23T12:21:18.171Z,101008.19
2023-01-23T12:23:57.099Z,101008.20
2023-01-23T12:26:27.807Z,101008.61
2023-01-23T12:29:40.147Z,101007.58
2023-01-23T12:32:32.011Z,101005.54
2023-01-23T12:35:02.877Z,101009.32
2023-01-23T12:37:43.468Z,101015.13
2023-01-23T12:40:38.779Z,101012.95
2023-01-23T12:43:21.726Z,101014.06
2023-01-23T12:45:59.621Z,101011.60
2023-01-23T12:48:32.674Z,101012.96
2023-01-23T12:51:21.163Z,101013.33
2023-01-23T12:53:57.544Z,101017.58
2023-01-23T12:56:31.043Z,101017.14
2023-01-23T12:59:34.373Z,101015.55
2023-01-23T13:02:38.099Z,101014.11
2023-01-23T13:05:29.865Z,101010.15
2023-01-23T13:08:06.073Z,101006.91
2023-01-23T13:11:21.226Z,101006.02
2023-01-23T13:13:49.884Z,101013.52
2023-01-23T13:16:19.855Z,101011.58
2023-01-23T13:19:18.211Z,101012.80
2023-01-23T13:22:22.289Z,101011.50
2023-01-23T13:25:17.261Z,101010.38
2023-01-23T13:27:58.480Z,101010.31
2023-01-23T13:30:26.489Z,101009.07
2023-01-23T13:33:00.794Z,101007.48
2023-01-23T13:35:53.069Z,101008.91
2023-01-23T13:38:30.435Z,101010.72
2023-01-23T13:41:14.427Z,101012.03
2023-01-23T13:43:51.140Z,101009.02
2023-01-23T14:22:16.900Z,101023.30
2023-01-23T14:24:55.158Z,101023.92
2023-01-23T14:27:52.241Z,101025.16
2023-01-23T14:30:27.131Z,101023.70
2023-01-23T14:32:55.573Z,101022.95
2023-01-23T14:35:29.606Z,101025.64
2023-01-23T14:38:01.761Z,101024.41
2023-01-23T14:40:35.323Z,101025.80
2023-01-23T14:43:09.624Z,101025.57
2023-01-23T14:45:37.711Z,101031.88
2023-01-23T14:48:08.100Z,101032.11
2023-01-23T14:50:36.390Z,101036.28
2023-01-23T14:53:13.940Z,101036.48
2023-01-23T14:55:46.383Z,101037.68
2023-01-23T14:58:22.334Z,101039.32
2023-01-23T15:00:52.207Z,101043.38
2023-01-23T15:03:37.211Z,101043.61
2023-01-23T15:06:15.756Z,101045.79
2023-01-23T15:08:44.052Z,101047.67
2023-01-23T15:11:13.404Z,101052.02
2023-01-23T15:13:47.123Z,101052.04
2023-01-23T15:16:21.704Z,101057.13
2023-01-23T15:19:04.154Z,101059.21
2023-01-23T15:21:36.623Z,101061.19
2023-01-23T15:24:20.808Z,101062.95
2023-01-23T15:27:04.909Z,101063.44
2023-01-23T15:29:33.737Z,101065.98
2023-01-23T15:32:02.777Z,101065.80
2023-01-23T15:34:34.903Z,101065.00
2023-01-23T15:37:07.150Z,101066.64
2023-01-23T15:39:58.220Z,101066.05
2023-01-23T15:42:33.741Z,101068.02
2023-01-23T15:45:03.976Z,101069.60
2023-01-23T15:47:34.779Z,101069.91
2023-01-23T15:50:03.254Z,101072.27
2023-01-23T15:52:46.300Z,101071.69
2023-01-23T15:55:15.319Z,101073.17
2023-01-23T15:57:43.961Z,101075.63
2023-01-23T16:00:16.023Z,101080.91
2023-01-23T16:02:55.116Z,101082.60
2023-01-23T16:05:42.292Z,101085.21
2023-01-23T16:08:22.960Z,101090.44
2023-01-23T16:10:51.286Z,101092.89
2023-01-23T16:13:19.251Z,101095.42
2023-01-23T16:15:48.676Z,101092.17
2023-01-23T16:18:17.142Z,101094.38
2023-01-23T16:20:46.501Z,101097.33
2023-01-23T16:23:24.872Z,101098.20
2023-01-23T16:25:53.691Z,101101.61
2023-01-23T16:28:26.034Z,101102.70
2023-01-23T16:30:54.002Z,101104.66
2023-01-23T16:33:22.401Z,101105.29
2023-01-23T16:35:51.864Z,101107.00
2023-01-23T16:38:23.078Z,101110.26
2023-01-23T16:40:53.597Z,101111.20
2023-01-23T16:43:23.226Z,101113.83
2023-01-23T16:45:54.327Z,101116.38
2023-01-23T16:48:28.034Z,101119.13
2023-01-23T16:51:02.871Z,101119.64
2023-01-23T16:53:44.106Z,101119.84
2023-01-23T16:56:24.584Z,101121.92
2023-01-23T16:58:52.702Z,101123.43
2023-01-23T17:01:22.999Z,101121.13
2023-01-23T17:04:03.952Z,101118.61
2023-01-23T17:06:32.792Z,101120.39
2023-01-23T17:09:00.906Z,101127.02
2023-01-23T17:11:40.187Z,101130.83
2023-01-23T17:14:17.897Z,101128.37
2023-01-23T17:16:48.464Z,101131.05
2023-01-23T17:19:22.107Z,101131.59
2023-01-23T17:21:51.934Z,101132.89
2023-01-23T17:24:20.214Z,101136.29
2023-01-23T17:26:48.391Z,101134.12
2023-01-23T17:29:16.745Z,101135.12
2023-01-23T17:31:45.885Z,101135.97
2023-01-23T17:34:26.055Z,101139.50
2023-01-23T17:36:56.456Z,101137.90
2023-01-23T17:39:25.456Z,101142.27
2023-01-23T17:41:54.123Z,101139.22
2023-01-23T17:44:22.092Z,101138.48
2023-01-23T17:46:54.684Z,101138.58
2023-01-23T17:49:32.882Z,101144.57
2023-01-23T17:52:01.559Z,101144.35
2023-01-23T17:54:30.004Z,101145.55
2023-01-23T17:56:58.019Z,101144.13
2023-01-23T17:59:26.022Z,101147.11
2023-01-23T18:01:54.227Z,101153.63
2023-01-23T18:04:23.315Z,101148.57
2023-01-23T18:06:52.056Z,101148.39
2023-01-23T18:09:21.382Z,101150.70
2023-01-23T18:11:52.657Z,101151.89
2023-01-23T18:14:50.434Z,101150.98
2023-01-23T18:17:31.640Z,101153.67
2023-01-23T18:19:59.720Z,101152.82
2023-01-23T18:22:28.062Z,101150.34
2023-01-23T18:24:56.490Z,101151.61
2023-01-23T18:27:26.968Z,101150.73
2023-01-23T18:30:07.260Z,101148.02
2023-01-23T18:32:54.608Z,101145.95
2023-01-23T18:35:57.456Z,101147.12
2023-01-23T18:38:44.945Z,101150.29
2023-01-23T18:41:23.987Z,101154.02
2023-01-23T18:44:12.963Z,101156.65
2023-01-23T18:46:41.503Z,101161.27
2023-01-23T18:49:13.462Z,101168.69
2023-01-23T18:51:54.710Z,101172.95
2023-01-23T18:54:30.593Z,101176.70
2023-01-23T18:57:17.213Z,101178.71
2023-01-23T19:00:12.899Z,101177.38
2023-01-23T19:02:52.481Z,101175.29
2023-01-23T19:05:32.782Z,101181.06
2023-01-23T19:08:02.608Z,101186.64
2023-01-23T19:10:47.629Z,101190.05
2023-01-23T19:13:33.650Z,101189.13
2023-01-23T19:16:26.409Z,101192.13
2023-01-23T19:19:15.870Z,101193.05
2023-01-23T19:21:47.316Z,101193.08
2023-01-23T19:24:19.466Z,101193.91
2023-01-23T19:26:48.285Z,101199.09
2023-01-23T19:29:21.877Z,101203.43
2023-01-23T19:32:04.052Z,101208.08
2023-01-23T19:34:34.181Z,101215.95
2023-01-23T19:37:03.180Z,101222.07
2023-01-23T19:39:31.624Z,101224.77
2023-01-23T19:42:00.131Z,101228.35
2023-01-23T19:44:30.130Z,101230.90
2023-01-23T19:46:58.171Z,101237.52
2023-01-23T19:49:26.166Z,101238.29
2023-01-23T19:51:54.137Z,101243.54
2023-01-23T19:54:24.162Z,101244.46
2023-01-23T19:56:52.435Z,101242.63
2023-01-23T19:59:21.060Z,101246.67
2023-01-23T20:01:53.604Z,101249.65
2023-01-23T20:04:23.708Z,101248.08
2023-01-23T20:06:52.544Z,101257.42
2023-01-23T20:09:21.527Z,101255.33
2023-01-23T20:11:50.014Z,101256.40
2023-01-23T20:14:17.962Z,101255.00
2023-01-23T20:16:46.239Z,101255.64
2023-01-23T20:19:16.534Z,101257.59
2023-01-23T20:21:47.657Z,101258.93
2023-01-23T20:24:16.817Z,101260.81
2023-01-23T20:26:46.377Z,101264.29
2023-01-23T20:29:14.809Z,101267.80
2023-01-23T20:31:42.812Z,101275.01
2023-01-23T20:34:10.861Z,101278.38
2023-01-23T20:36:40.491Z,101276.54
2023-01-23T20:39:08.673Z,101281.04
2023-01-23T20:41:36.826Z,101282.37
2023-01-23T20:44:04.851Z,101282.27
2023-01-23T20:46:33.309Z,101280.71
2023-01-23T20:49:02.256Z,101284.15
2023-01-23T20:51:30.452Z,101285.65
2023-01-23T20:53:58.654Z,101292.39
2023-01-23T20:56:29.798Z,101294.88
2023-01-23T20:59:16.295Z,101301.08
2023-01-23T21:02:04.315Z,101305.12
2023-01-23T21:04:35.196Z,101308.70
2023-01-23T21:07:04.677Z,101312.01
2023-01-23T21:09:32.809Z,101315.83
2023-01-23T21:12:06.952Z,101323.94
2023-01-23T21:14:35.697Z,101325.00
2023-01-23T21:17:05.521Z,101327.18
2023-01-23T21:19:39.106Z,101325.19
2023-01-23T21:22:12.555Z,101324.21
2023-01-23T21:24:41.015Z,101326.70
2023-01-23T21:27:09.916Z,101329.63
2023-01-23T21:29:38.067Z,101331.34
2023-01-23T21:32:06.501Z,101333.77
2023-01-23T21:34:34.471Z,101334.95
2023-01-23T21:37:03.772Z,101336.23
2023-01-23T21:39:31.966Z,101336.54
2023-01-23T21:42:05.979Z,101335.97
2023-01-23T21:44:35.688Z,101339.02
2023-01-23T21:47:03.947Z,101341.02
2023-01-23T21:49:31.940Z,101343.50
2023-01-23T21:52:04.765Z,101348.52
2023-01-23T21:54:32.743Z,101350.06
2023-01-23T21:57:01.014Z,101349.48
2023-01-23T21:59:29.499Z,101352.19
2023-01-23T22:01:58.049Z,101355.33
2023-01-23T22:04:29.606Z,101358.84
2023-01-23T22:07:00.539Z,101354.22
2023-01-23T22:09:28.518Z,101355.61
2023-01-23T22:11:56.501Z,101360.06
2023-01-23T22:14:24.508Z,101363.46
2023-01-23T22:16:52.451Z,101364.65
2023-01-23T22:19:24.908Z,101365.69
2023-01-23T22:21:55.541Z,101367.12
2023-01-23T22:24:24.768Z,101365.33
2023-01-23T22:26:53.569Z,101367.51
2023-01-23T22:29:22.946Z,101370.11
2023-01-23T22:31:52.385Z,101369.55
2023-01-23T22:34:26.086Z,101371.38
2023-01-23T22:36:53.929Z,101374.46
2023-01-23T22:39:22.120Z,101376.97
2023-01-23T22:41:52.863Z,101381.60
2023-01-23T22:44:20.807Z,101378.91
2023-01-23T22:46:51.762Z,101378.54
2023-01-23T22:49:20.076Z,101378.74
2023-01-23T22:51:48.752Z,101380.86
2023-01-23T22:54:16.701Z,101388.75
2023-01-23T22:56:44.657Z,101391.48
2023-01-23T22:59:12.819Z,101392.43
2023-01-23T23:01:40.701Z,101394.02
2023-01-23T23:04:09.672Z,101396.72
2023-01-23T23:06:37.701Z,101398.46
2023-01-23T23:09:05.615Z,101396.20
2023-01-23T23:11:33.991Z,101394.00
2023-01-23T23:14:02.583Z,101393.66
2023-01-23T23:16:32.483Z,101392.02
2023-01-23T23:19:02.679Z,101388.45
2023-01-23T23:21:36.308Z,101390.17
2023-01-23T23:24:07.245Z,101392.59
2023-01-23T23:26:35.099Z,101392.23
2023-01-23T23:29:04.648Z,101393.65
2023-01-23T23:31:33.127Z,101398.52
2023-01-23T23:34:01.115Z,101400.98
2023-01-23T23:36:29.269Z,101401.77
2023-01-23T23:38:57.149Z,101402.20
2023-01-23T23:41:25.508Z,101401.69
2023-01-23T23:43:53.535Z,101403.06
2023-01-23T23:46:21.506Z,101398.56
2023-01-23T23:48:49.574Z,101402.77
2023-01-23T23:51:19.347Z,101401.80
2023-01-23T23:53:48.254Z,101401.31
2023-01-23T23:56:26.309Z,101403.11
2023-01-23T23:58:55.428Z,101405.52
